Time;durP1;ratioP1;P1;durP2;ratioP2;P2;SDS_P1;SDS_P2;PMS_P1;PMS_P2;Temp;Humidity;BMP_temperature;BMP_pressure;BME280_temperature;BME280_humidity;BME280_pressure;Samples;Min_cycle;Max_cycle;Signal;HPM_P1;HPM_P2
2022/01/07 00:00:16;;;;;;;11.95;4.05;;;3.50;99.90;;;;;;5053233;28;20053;-82
2022/01/07 00:02:53;;;;;;;14.73;4.57;;;3.50;99.90;;;;;;5061548;28;20036;-81
2022/01/07 00:05:19;;;;;;;13.88;4.50;;;3.50;99.90;;;;;;5037964;28;20517;-86
2022/01/07 00:07:45;;;;;;;11.23;4.40;;;3.40;99.90;;;;;;5038469;28;20033;-87
2022/01/07 00:10:12;;;;;;;12.10;4.68;;;3.50;99.90;;;;;;5053880;28;20980;-87
2022/01/07 00:12:38;;;;;;;11.23;3.90;;;3.50;99.90;;;;;;5053604;28;20052;-85
2022/01/07 00:15:08;;;;;;;15.05;4.50;;;3.50;99.90;;;;;;5054628;28;20056;-89
2022/01/07 00:17:34;;;;;;;15.88;4.50;;;3.00;99.90;;;;;;5033408;28;20096;-82
2022/01/07 00:20:00;;;;;;;13.32;3.75;;;3.40;99.90;;;;;;5034065;28;20077;-88
2022/01/07 00:22:26;;;;;;;13.32;4.30;;;3.40;99.90;;;;;;5034160;28;20199;-88
2022/01/07 00:24:52;;;;;;;16.50;5.00;;;3.40;99.90;;;;;;5034071;28;20037;-88
2022/01/07 00:27:17;;;;;;;8.98;3.65;;;3.40;99.90;;;;;;5034011;28;20638;-86
2022/01/07 00:29:43;;;;;;;10.18;4.25;;;3.40;99.90;;;;;;5033629;28;20408;-87
2022/01/07 00:32:09;;;;;;;16.50;5.20;;;3.30;99.90;;;;;;5033537;28;20553;-90
2022/01/07 00:34:35;;;;;;;13.00;5.20;;;4.00;99.90;;;;;;5034109;28;20554;-91
2022/01/07 00:37:00;;;;;;;11.13;4.63;;;3.30;99.90;;;;;;5033385;28;20049;-88
2022/01/07 00:39:26;;;;;;;13.00;5.15;;;4.00;99.90;;;;;;5016067;28;20049;-84
2022/01/07 00:41:52;;;;;;;18.05;5.50;;;3.20;99.90;;;;;;5033995;28;20067;-81
2022/01/07 00:44:17;;;;;;;15.23;5.15;;;3.10;99.90;;;;;;5033696;28;20119;-89
2022/01/07 00:46:43;;;;;;;18.17;5.43;;;3.10;99.90;;;;;;5037420;28;20036;-84
2022/01/07 00:49:09;;;;;;;19.80;4.50;;;4.00;99.90;;;;;;5053852;28;20079;-88
2022/01/07 00:51:35;;;;;;;16.58;4.55;;;3.30;99.90;;;;;;5054383;28;20037;-84
2022/01/07 00:54:00;;;;;;;15.07;5.70;;;3.00;99.90;;;;;;5054247;28;20407;-90
2022/01/07 00:56:26;;;;;;;19.50;5.65;;;3.00;99.90;;;;;;5054301;28;20053;-84
2022/01/07 00:58:52;;;;;;;11.20;4.47;;;2.90;99.90;;;;;;5055866;28;20469;-84
2022/01/07 01:01:17;;;;;;;18.88;5.65;;;2.80;99.90;;;;;;5030291;28;20124;-85
2022/01/07 01:03:43;;;;;;;14.02;5.30;;;2.90;99.90;;;;;;5033716;28;20053;-83
2022/01/07 01:06:09;;;;;;;14.65;5.13;;;2.80;99.90;;;;;;5032441;28;20045;-83
2022/01/07 01:08:34;;;;;;;21.17;5.30;;;2.80;99.90;;;;;;5032821;28;20076;-83
2022/01/07 01:11:00;;;;;;;15.30;5.38;;;2.80;99.90;;;;;;5033156;28;20045;-83
2022/01/07 01:13:26;;;;;;;15.30;5.40;;;2.80;99.90;;;;;;5035407;28;20037;-84
2022/01/07 01:15:52;;;;;;;15.15;5.60;;;2.70;99.90;;;;;;5033112;28;20037;-82
2022/01/07 01:18:18;;;;;;;15.95;5.00;;;3.30;99.90;;;;;;5045970;28;20072;-81
2022/01/07 01:20:44;;;;;;;16.23;6.03;;;2.70;99.90;;;;;;5052646;28;20053;-83
2022/01/07 01:23:11;;;;;;;18.08;6.07;;;2.70;99.90;;;;;;5035340;28;20063;-83
2022/01/07 01:25:37;;;;;;;18.42;5.97;;;2.60;99.90;;;;;;5054298;28;20067;-84
2022/01/07 01:28:02;;;;;;;16.02;5.82;;;2.60;99.90;;;;;;5052974;28;20555;-82
2022/01/07 01:30:31;;;;;;;15.30;5.40;;;2.60;99.90;;;;;;5053017;28;20053;-83
2022/01/07 01:32:57;;;;;;;14.00;5.22;;;2.60;99.90;;;;;;5053288;28;20067;-83
2022/01/07 01:35:22;;;;;;;15.27;4.88;;;2.60;99.90;;;;;;5044197;28;20495;-82
2022/01/07 01:37:49;;;;;;;17.08;5.90;;;2.60;99.90;;;;;;5052755;28;20458;-82
2022/01/07 01:40:17;;;;;;;17.08;5.85;;;2.50;99.90;;;;;;5051230;28;20480;-82
2022/01/07 01:42:44;;;;;;;18.75;6.40;;;3.30;99.90;;;;;;5067906;28;20053;-82
2022/01/07 01:45:11;;;;;;;13.23;5.38;;;2.50;99.90;;;;;;5068431;28;20488;-82
2022/01/07 01:47:37;;;;;;;15.07;5.82;;;2.50;99.90;;;;;;5061474;28;20045;-86
2022/01/07 01:50:04;;;;;;;14.75;5.47;;;2.50;99.90;;;;;;5033961;28;20535;-83
2022/01/07 01:52:30;;;;;;;16.20;5.78;;;2.50;99.90;;;;;;5052236;28;20080;-83
2022/01/07 01:54:55;;;;;;;15.25;5.80;;;2.50;99.90;;;;;;5051632;28;20077;-84
2022/01/07 01:57:21;;;;;;;12.57;5.53;;;2.50;99.90;;;;;;5034982;28;20052;-83
2022/01/07 01:59:48;;;;;;;14.50;5.88;;;2.50;99.90;;;;;;5052593;28;20040;-84
2022/01/07 02:02:14;;;;;;;16.67;6.40;;;2.50;99.90;;;;;;5051520;28;20096;-81
2022/01/07 02:04:41;;;;;;;10.75;6.00;;;2.40;99.90;;;;;;5070073;28;20159;-82
2022/01/07 02:07:08;;;;;;;14.90;6.28;;;3.00;99.90;;;;;;5071658;28;20127;-84
2022/01/07 02:09:37;;;;;;;16.42;5.82;;;2.60;99.90;;;;;;5054331;28;20089;-83
2022/01/07 02:12:08;;;;;;;11.88;6.03;;;2.40;99.90;;;;;;5071965;28;20063;-86
2022/01/07 02:14:34;;;;;;;15.68;6.63;;;2.40;99.90;;;;;;5071421;28;20044;-83
2022/01/07 02:17:07;;;;;;;12.68;6.07;;;2.40;99.90;;;;;;5053058;28;20063;-82
2022/01/07 02:19:34;;;;;;;15.27;7.07;;;2.40;99.90;;;;;;5071744;28;20052;-83
2022/01/07 02:22:00;;;;;;;16.48;6.47;;;2.40;99.90;;;;;;5071412;28;20032;-82
2022/01/07 02:24:25;;;;;;;16.98;6.70;;;2.40;99.90;;;;;;5071496;28;20890;-83
2022/01/07 02:26:52;;;;;;;14.15;6.82;;;2.40;99.90;;;;;;5068670;28;20040;-83
2022/01/07 02:29:18;;;;;;;16.35;6.93;;;2.40;99.90;;;;;;5071288;28;20051;-82
2022/01/07 02:31:44;;;;;;;13.48;6.63;;;2.40;99.90;;;;;;5067302;28;20045;-82
2022/01/07 02:34:10;;;;;;;14.80;7.13;;;2.40;99.90;;;;;;5051371;28;20037;-82
2022/01/07 02:36:35;;;;;;;16.48;7.30;;;2.60;99.90;;;;;;5050963;28;20091;-82
2022/01/07 02:39:01;;;;;;;15.27;6.30;;;2.40;99.90;;;;;;5054633;28;20052;-83
2022/01/07 02:41:27;;;;;;;13.32;5.95;;;2.40;99.90;;;;;;5071251;28;20094;-83
2022/01/07 02:43:52;;;;;;;17.83;7.18;;;2.40;99.90;;;;;;5070853;28;20136;-84
2022/01/07 02:46:18;;;;;;;13.70;6.70;;;2.40;99.90;;;;;;5071028;28;20055;-82
2022/01/07 02:48:44;;;;;;;11.35;6.72;;;2.40;99.90;;;;;;5071150;28;20036;-82
2022/01/07 02:51:09;;;;;;;12.50;6.00;;;2.40;99.90;;;;;;5070894;28;20127;-83
2022/01/07 02:53:35;;;;;;;13.40;7.28;;;2.40;99.90;;;;;;5070537;28;20387;-83
2022/01/07 02:56:01;;;;;;;17.15;7.28;;;3.20;99.90;;;;;;5070647;28;20041;-85
2022/01/07 02:58:27;;;;;;;17.05;8.02;;;2.40;99.90;;;;;;5070776;28;20056;-84
2022/01/07 03:00:53;;;;;;;16.13;7.53;;;2.40;99.90;;;;;;5070489;28;20048;-82
2022/01/07 03:03:18;;;;;;;12.48;6.80;;;2.40;99.90;;;;;;5070522;28;20048;-82
2022/01/07 03:05:44;;;;;;;16.55;7.97;;;2.40;99.90;;;;;;5070720;28;20045;-82
2022/01/07 03:08:10;;;;;;;12.38;7.57;;;3.20;99.90;;;;;;5074744;28;20119;-82
2022/01/07 03:10:36;;;;;;;13.05;6.68;;;2.40;99.90;;;;;;5072385;28;20510;-83
2022/01/07 03:13:03;;;;;;;18.80;7.85;;;2.40;99.90;;;;;;5074493;28;20107;-83
2022/01/07 03:15:31;;;;;;;17.08;7.25;;;2.40;99.90;;;;;;5074335;28;20064;-81
2022/01/07 03:17:57;;;;;;;17.60;8.30;;;2.40;99.90;;;;;;5073801;28;20060;-83
2022/01/07 03:20:23;;;;;;;13.40;7.28;;;2.50;99.90;;;;;;5074361;28;20055;-81
2022/01/07 03:22:50;;;;;;;16.08;7.80;;;2.40;99.90;;;;;;5072025;28;20141;-82
2022/01/07 03:25:17;;;;;;;17.38;7.63;;;2.40;99.90;;;;;;5035619;28;20041;-86
2022/01/07 03:27:43;;;;;;;13.93;6.82;;;2.40;99.90;;;;;;5054000;28;20462;-82
2022/01/07 03:30:11;;;;;;;18.98;7.43;;;2.40;99.90;;;;;;5053837;28;20053;-82
2022/01/07 03:32:37;;;;;;;12.82;7.20;;;2.40;99.90;;;;;;5035814;28;20396;-81
2022/01/07 03:35:05;;;;;;;16.67;8.23;;;2.40;99.90;;;;;;5053732;28;20499;-81
2022/01/07 03:37:30;;;;;;;18.30;8.35;;;2.40;99.90;;;;;;5053655;28;20056;-82
2022/01/07 03:39:56;;;;;;;15.75;8.57;;;2.40;99.90;;;;;;5064774;28;20048;-83
2022/01/07 03:42:22;;;;;;;14.10;7.55;;;2.40;99.90;;;;;;5073968;28;20036;-82
2022/01/07 03:44:47;;;;;;;14.95;8.20;;;2.50;99.90;;;;;;5073594;28;20124;-84
2022/01/07 03:47:13;;;;;;;14.90;8.07;;;2.50;99.90;;;;;;5073319;28;20097;-82
2022/01/07 03:49:39;;;;;;;19.70;8.82;;;2.50;99.90;;;;;;5073694;28;20037;-81
2022/01/07 03:52:05;;;;;;;13.38;7.93;;;2.50;99.90;;;;;;5073739;28;20567;-81
2022/01/07 03:54:31;;;;;;;15.70;9.10;;;2.50;99.90;;;;;;5055348;28;20041;-82
2022/01/07 03:56:56;;;;;;;14.85;7.53;;;3.10;99.90;;;;;;5072913;28;20445;-82
2022/01/07 03:59:22;;;;;;;14.82;8.68;;;2.50;99.90;;;;;;5073393;28;20040;-81
2022/01/07 04:01:48;;;;;;;13.77;8.00;;;2.50;99.90;;;;;;5071357;28;20586;-83
2022/01/07 04:04:13;;;;;;;15.77;8.50;;;2.50;99.90;;;;;;5057026;28;20091;-83
2022/01/07 04:06:39;;;;;;;17.63;8.45;;;2.50;99.90;;;;;;5075449;28;20102;-91
2022/01/07 04:09:05;;;;;;;17.45;8.50;;;2.50;99.90;;;;;;5074269;28;20781;-84
2022/01/07 04:11:30;;;;;;;16.75;8.10;;;2.50;99.90;;;;;;5039475;28;20135;-91
2022/01/07 04:13:56;;;;;;;17.13;8.35;;;2.50;99.90;;;;;;5057069;28;20044;-87
2022/01/07 04:16:22;;;;;;;12.05;6.30;;;2.80;99.90;;;;;;5058060;28;20052;-84
2022/01/07 04:18:47;;;;;;;14.27;7.85;;;2.50;99.90;;;;;;5058013;28;20143;-94
2022/01/07 04:21:13;;;;;;;12.38;8.18;;;2.50;99.90;;;;;;5075046;28;20047;-84
2022/01/07 04:23:39;;;;;;;15.30;8.70;;;2.50;99.90;;;;;;5075283;28;20044;-86
2022/01/07 04:26:04;;;;;;;14.05;7.80;;;2.50;99.90;;;;;;5075699;28;20119;-90
2022/01/07 04:29:10;;;;;;;11.85;7.53;;;2.50;99.90;;;;;;5075054;28;20106;-93
2022/01/07 04:31:36;;;;;;;14.10;7.78;;;2.50;99.90;;;;;;5058912;28;20052;-82
2022/01/07 04:34:02;;;;;;;14.15;7.25;;;2.60;99.90;;;;;;5077917;28;20049;-85
2022/01/07 04:36:28;;;;;;;13.10;8.00;;;2.60;99.90;;;;;;5075116;28;20410;-84
2022/01/07 04:38:54;;;;;;;12.80;8.70;;;2.60;99.90;;;;;;5073068;28;20052;-86
2022/01/07 04:41:19;;;;;;;14.27;8.15;;;2.60;99.90;;;;;;5055351;28;20064;-82
2022/01/07 04:43:45;;;;;;;15.70;7.55;;;2.60;99.90;;;;;;5073704;28;20040;-83
2022/01/07 04:46:11;;;;;;;14.18;8.10;;;2.60;99.90;;;;;;5073380;28;20047;-81
2022/01/07 04:48:36;;;;;;;15.00;7.57;;;3.60;99.90;;;;;;5073705;28;20041;-84
2022/01/07 04:51:02;;;;;;;15.43;8.40;;;2.60;99.90;;;;;;5073824;28;20407;-83
2022/01/07 04:53:28;;;;;;;12.60;8.52;;;2.60;99.90;;;;;;5073832;28;20123;-84
2022/01/07 04:55:53;;;;;;;13.90;8.30;;;2.60;99.90;;;;;;5073521;28;20047;-81
2022/01/07 04:58:19;;;;;;;15.38;8.45;;;2.60;99.90;;;;;;5073359;28;20048;-82
2022/01/07 05:00:45;;;;;;;15.85;8.30;;;2.70;99.90;;;;;;5073068;28;20047;-83
2022/01/07 05:03:12;;;;;;;18.35;9.05;;;2.70;99.90;;;;;;5073710;28;20124;-83
2022/01/07 05:05:38;;;;;;;14.93;8.20;;;2.60;99.90;;;;;;5073341;28;20052;-86
2022/01/07 05:08:05;;;;;;;16.83;8.30;;;2.70;99.90;;;;;;5060949;28;20045;-83
2022/01/07 05:10:31;;;;;;;16.05;7.93;;;2.70;99.90;;;;;;5053347;28;20041;-82
2022/01/07 05:12:57;;;;;;;13.63;7.53;;;3.20;99.90;;;;;;5053433;28;20086;-81
2022/01/07 05:15:23;;;;;;;11.88;6.82;;;2.70;99.90;;;;;;5053050;28;20040;-82
2022/01/07 05:17:49;;;;;;;13.88;8.90;;;2.80;99.90;;;;;;5052218;28;20067;-81
2022/01/07 05:20:16;;;;;;;14.65;7.47;;;2.80;99.90;;;;;;5033726;28;20053;-82
2022/01/07 05:22:43;;;;;;;13.63;8.27;;;2.80;99.90;;;;;;5014842;28;20127;-82
2022/01/07 05:25:10;;;;;;;13.55;6.95;;;2.80;99.90;;;;;;5032596;28;20049;-83
2022/01/07 05:27:36;;;;;;;15.80;7.97;;;2.80;99.90;;;;;;5032580;28;20048;-83
2022/01/07 05:30:05;;;;;;;11.65;7.57;;;3.50;99.90;;;;;;5031496;28;20044;-82
2022/01/07 05:32:30;;;;;;;15.63;8.45;;;2.80;99.90;;;;;;5038378;28;20048;-82
2022/01/07 05:34:56;;;;;;;12.25;7.90;;;2.80;99.90;;;;;;5034548;28;20057;-80
2022/01/07 05:37:22;;;;;;;13.85;7.38;;;2.80;99.90;;;;;;5052229;28;20159;-82
2022/01/07 05:39:48;;;;;;;16.92;7.30;;;2.90;99.90;;;;;;5052004;28;20174;-82
2022/01/07 05:42:13;;;;;;;13.70;6.78;;;2.90;99.90;;;;;;5034472;28;20037;-82
2022/01/07 05:44:39;;;;;;;15.73;7.63;;;2.90;99.90;;;;;;5051987;28;20037;-82
2022/01/07 05:47:05;;;;;;;11.82;7.05;;;2.90;99.90;;;;;;5051613;28;20048;-82
2022/01/07 05:49:31;;;;;;;13.40;7.70;;;2.90;99.90;;;;;;5042517;28;20488;-82
2022/01/07 05:51:57;;;;;;;12.02;7.82;;;3.00;99.90;;;;;;5032105;28;20102;-83
2022/01/07 05:54:22;;;;;;;13.75;8.05;;;2.90;99.90;;;;;;5014665;28;20447;-82
2022/01/07 05:56:48;;;;;;;14.77;7.90;;;2.90;99.90;;;;;;5031894;28;20124;-82
2022/01/07 05:59:14;;;;;;;12.80;7.75;;;3.00;99.90;;;;;;5031939;28;20033;-82
2022/01/07 06:01:40;;;;;;;14.35;8.95;;;3.00;99.90;;;;;;5013497;28;20053;-82
2022/01/07 06:04:06;;;;;;;14.77;8.02;;;3.00;99.90;;;;;;5031887;28;20397;-82
2022/01/07 06:06:32;;;;;;;15.15;8.68;;;3.00;99.90;;;;;;5031668;28;20045;-84
2022/01/07 06:08:57;;;;;;;10.73;7.95;;;3.80;99.90;;;;;;5013834;28;20060;-82
2022/01/07 06:11:23;;;;;;;15.38;7.72;;;3.60;99.90;;;;;;5015668;28;20042;-83
2022/01/07 06:13:48;;;;;;;12.73;8.52;;;3.00;99.90;;;;;;5032299;28;20455;-83
2022/01/07 06:16:14;;;;;;;13.63;8.73;;;3.00;99.90;;;;;;5032100;28;20073;-83
2022/01/07 06:18:50;;;;;;;13.27;8.35;;;3.60;99.90;;;;;;5024249;28;20530;-82
2022/01/07 06:21:16;;;;;;;14.10;8.20;;;3.00;99.90;;;;;;5051720;28;20057;-83
2022/01/07 06:23:42;;;;;;;12.63;8.43;;;3.00;99.90;;;;;;5051754;28;20052;-83
2022/01/07 06:26:08;;;;;;;14.50;8.30;;;3.00;99.90;;;;;;5051657;28;20052;-82
2022/01/07 06:28:33;;;;;;;11.30;7.32;;;3.00;99.90;;;;;;5051205;28;20098;-82
2022/01/07 06:30:59;;;;;;;12.63;7.72;;;3.00;99.90;;;;;;5051256;28;20037;-82
2022/01/07 06:33:25;;;;;;;11.13;6.93;;;3.00;99.90;;;;;;5050857;28;20037;-81
2022/01/07 06:35:50;;;;;;;14.40;7.93;;;3.00;99.90;;;;;;5050992;28;20613;-81
2022/01/07 06:38:16;;;;;;;13.18;7.93;;;3.00;99.90;;;;;;5051154;28;20056;-85
2022/01/07 06:40:42;;;;;;;11.38;8.02;;;3.00;99.90;;;;;;5050604;28;20076;-83
2022/01/07 06:43:07;;;;;;;12.18;7.65;;;3.00;99.90;;;;;;5050952;28;20106;-84
2022/01/07 06:45:33;;;;;;;11.15;7.88;;;3.80;99.90;;;;;;5032823;28;20045;-82
2022/01/07 06:47:58;;;;;;;15.10;8.60;;;3.00;99.90;;;;;;5050247;28;20045;-85
2022/01/07 06:50:24;;;;;;;16.27;8.65;;;3.00;99.90;;;;;;5050342;28;20044;-86
2022/01/07 06:52:50;;;;;;;14.18;8.88;;;3.00;99.90;;;;;;5050719;28;20041;-82
2022/01/07 06:55:15;;;;;;;12.20;8.40;;;3.00;99.90;;;;;;5050653;28;20041;-82
2022/01/07 06:57:41;;;;;;;12.70;8.45;;;3.00;99.90;;;;;;5032703;28;20045;-81
2022/01/07 07:00:07;;;;;;;13.02;8.88;;;3.00;99.90;;;;;;5032519;28;20106;-86
2022/01/07 07:02:33;;;;;;;13.32;9.02;;;3.10;99.90;;;;;;5050325;28;20086;-82
2022/01/07 07:04:59;;;;;;;19.25;9.32;;;3.10;99.90;;;;;;5050102;28;20537;-81
2022/01/07 07:07:24;;;;;;;12.85;8.80;;;3.10;99.90;;;;;;5050374;28;20493;-82
2022/01/07 07:09:50;;;;;;;19.95;9.20;;;3.20;99.90;;;;;;5050281;28;20098;-82
2022/01/07 07:12:16;;;;;;;16.83;8.90;;;3.10;99.90;;;;;;5050443;28;20037;-81
2022/01/07 07:14:41;;;;;;;13.45;9.20;;;3.50;99.90;;;;;;5050384;28;20037;-86
2022/01/07 07:17:07;;;;;;;19.67;9.57;;;3.20;99.90;;;;;;5049677;28;20129;-81
2022/01/07 07:19:33;;;;;;;20.13;10.13;;;3.20;99.90;;;;;;5049766;28;20064;-81
2022/01/07 07:21:59;;;;;;;16.30;10.05;;;3.30;99.90;;;;;;5032323;28;20071;-82
2022/01/07 07:24:25;;;;;;;17.48;9.55;;;3.30;99.90;;;;;;5032070;28;20052;-82
2022/01/07 07:26:50;;;;;;;17.25;10.63;;;3.30;99.90;;;;;;5050305;28;20048;-82
2022/01/07 07:29:16;;;;;;;16.42;11.02;;;3.40;99.90;;;;;;5032072;28;20044;-81
2022/01/07 07:31:47;;;;;;;14.57;10.77;;;3.40;99.90;;;;;;5049851;28;20519;-82
2022/01/07 07:36:45;;;;;;;18.45;10.50;;;3.40;99.90;;;;;;5030107;28;20053;-81
2022/01/07 07:39:12;;;;;;;20.00;11.77;;;3.40;99.90;;;;;;5030100;28;20088;-82
2022/01/07 07:41:40;;;;;;;20.13;12.50;;;3.40;99.90;;;;;;5041960;28;20048;-82
2022/01/07 07:44:06;;;;;;;19.63;13.02;;;3.40;99.90;;;;;;5049532;28;20049;-80
2022/01/07 07:46:34;;;;;;;18.85;11.57;;;3.80;99.90;;;;;;5049091;28;20048;-81
2022/01/07 07:49:00;;;;;;;19.02;10.95;;;3.50;99.90;;;;;;5042938;28;20102;-82
2022/01/07 07:51:27;;;;;;;20.70;11.65;;;3.60;99.90;;;;;;5049578;28;20072;-82
2022/01/07 07:53:53;;;;;;;26.73;12.00;;;3.60;99.90;;;;;;5053337;28;20045;-81
2022/01/07 07:56:19;;;;;;;19.88;11.13;;;3.60;99.90;;;;;;5064406;28;20372;-81
2022/01/07 07:58:45;;;;;;;20.23;11.40;;;4.40;99.90;;;;;;5073400;28;20080;-82
2022/01/07 08:01:12;;;;;;;18.95;11.27;;;3.60;99.90;;;;;;5073516;28;20094;-84
2022/01/07 08:03:39;;;;;;;17.42;12.23;;;3.70;99.90;;;;;;5047193;28;20041;-83
2022/01/07 08:06:05;;;;;;;22.35;12.35;;;3.70;99.90;;;;;;5055676;28;20049;-86
2022/01/07 08:08:46;;;;;;;21.38;11.02;;;3.70;99.90;;;;;;5069444;28;20033;-85
2022/01/07 08:11:13;;;;;;;20.00;11.95;;;3.70;99.90;;;;;;5076682;28;20131;-85
2022/01/07 08:16:25;;;;;;;23.52;12.63;;;3.70;99.90;;;;;;5048850;28;20049;-82
2022/01/07 08:18:53;;;;;;;23.15;12.73;;;3.70;99.90;;;;;;5063441;28;20109;-83
2022/01/07 08:21:21;;;;;;;25.98;13.65;;;3.70;99.90;;;;;;5071349;28;20122;-83
2022/01/07 08:23:47;;;;;;;20.73;12.88;;;3.80;99.90;;;;;;5071064;28;20123;-81
2022/01/07 08:26:16;;;;;;;24.80;13.13;;;3.80;99.90;;;;;;5071361;28;20131;-82
2022/01/07 08:28:47;;;;;;;21.50;12.95;;;4.60;99.90;;;;;;5071452;28;20155;-83
2022/01/07 08:36:29;;;;;;;25.25;14.18;;;3.90;99.90;;;;;;5053494;28;20053;-83
2022/01/07 08:38:56;;;;;;;24.45;14.15;;;3.90;99.90;;;;;;5050991;28;20049;-84
2022/01/07 08:41:25;;;;;;;28.85;14.18;;;3.90;99.90;;;;;;5050614;28;20526;-80
2022/01/07 08:43:51;;;;;;;22.05;13.77;;;4.00;99.90;;;;;;5050923;28;20045;-82
2022/01/07 08:46:17;;;;;;;26.65;14.35;;;4.00;99.90;;;;;;5051301;28;20530;-81
2022/01/07 08:48:43;;;;;;;25.33;14.25;;;4.00;99.90;;;;;;5050643;28;20045;-87
2022/01/07 08:51:09;;;;;;;23.85;14.48;;;4.00;99.90;;;;;;5034101;28;20203;-85
2022/01/07 08:53:34;;;;;;;31.38;14.52;;;4.10;99.90;;;;;;5041045;28;20041;-83
2022/01/07 08:56:00;;;;;;;27.48;14.40;;;4.10;99.90;;;;;;5032536;28;20140;-83
2022/01/07 08:58:26;;;;;;;26.10;14.77;;;4.20;99.90;;;;;;5033540;28;20045;-83
2022/01/07 09:00:52;;;;;;;26.85;14.20;;;4.10;99.90;;;;;;5033561;28;20118;-83
2022/01/07 09:03:18;;;;;;;28.30;15.38;;;4.90;99.90;;;;;;5034280;28;20053;-84
2022/01/07 09:16:45;;;;;;;25.73;15.57;;;4.30;99.90;;;;;;5012721;28;20111;-86
2022/01/07 09:19:11;;;;;;;26.77;14.68;;;5.20;99.90;;;;;;5180151;23;20052;-82
2022/01/07 09:21:36;;;;;;;28.58;15.05;;;4.80;99.90;;;;;;5038324;28;20049;-83
2022/01/07 09:24:05;;;;;;;27.83;14.15;;;4.40;99.90;;;;;;5055194;28;20083;-83
2022/01/07 09:26:31;;;;;;;26.35;16.10;;;4.40;99.90;;;;;;5038017;28;20056;-87
2022/01/07 09:29:14;;;;;;;32.80;16.05;;;4.40;99.90;;;;;;5054696;28;20698;-84
2022/01/07 09:31:40;;;;;;;31.35;15.15;;;4.40;99.90;;;;;;5071619;28;20049;-83
2022/01/07 09:34:06;;;;;;;29.92;14.88;;;4.50;99.90;;;;;;5072213;28;20037;-86
2022/01/07 09:36:32;;;;;;;27.38;15.85;;;4.50;99.90;;;;;;5060957;28;20041;-87
2022/01/07 09:38:58;;;;;;;34.90;16.98;;;4.50;99.90;;;;;;5072107;28;20091;-86
2022/01/07 09:41:24;;;;;;;29.45;14.55;;;4.50;99.90;;;;;;5040375;28;20072;-86
2022/01/07 09:43:50;;;;;;;21.70;14.15;;;4.50;99.90;;;;;;5052327;28;20057;-86
2022/01/07 09:46:18;;;;;;;25.70;12.57;;;4.50;99.90;;;;;;5052201;28;20406;-91
2022/01/07 09:48:44;;;;;;;26.27;11.88;;;4.50;99.90;;;;;;5053212;28;20056;-84
2022/01/07 09:51:13;;;;;;;27.05;12.23;;;4.50;99.90;;;;;;5052846;28;20087;-85
2022/01/07 09:53:39;;;;;;;18.77;10.60;;;4.60;99.90;;;;;;5035012;28;20522;-91
2022/01/07 09:56:04;;;;;;;21.85;10.13;;;4.80;99.90;;;;;;5053140;28;20076;-84
2022/01/07 09:58:33;;;;;;;17.42;10.75;;;4.60;99.90;;;;;;5054637;28;20044;-89
2022/01/07 10:01:04;;;;;;;11.15;7.03;;;4.60;99.90;;;;;;5061173;28;20051;-91
2022/01/07 10:03:41;;;;;;;17.02;8.55;;;4.50;99.90;;;;;;5054262;28;20074;-94
2022/01/07 10:06:22;;;;;;;8.57;4.75;;;4.50;99.90;;;;;;5055334;28;20090;-82
2022/01/07 10:09:10;;;;;;;7.20;2.20;;;5.30;99.90;;;;;;5034260;28;20550;-90
2022/01/07 10:11:37;;;;;;;7.80;2.60;;;4.30;99.90;;;;;;5051141;28;20144;-90
2022/01/07 10:14:22;;;;;;;8.32;4.05;;;4.80;99.90;;;;;;5016977;28;20500;-87
2022/01/07 10:16:55;;;;;;;8.05;4.72;;;4.20;99.90;;;;;;5051402;28;20075;-85
2022/01/07 10:19:32;;;;;;;9.15;4.13;;;4.20;99.90;;;;;;5051720;28;20053;-94
2022/01/07 10:22:00;;;;;;;8.05;4.22;;;5.10;99.90;;;;;;5051777;28;20045;-91
2022/01/07 10:24:25;;;;;;;10.65;4.50;;;4.20;99.90;;;;;;5051749;28;20484;-86
2022/01/07 10:27:11;;;;;;;7.97;4.32;;;5.10;99.90;;;;;;5051946;28;20041;-90
2022/01/07 10:29:38;;;;;;;5.55;3.40;;;4.30;99.90;;;;;;5050981;28;20045;-86
2022/01/07 10:32:27;;;;;;;6.75;2.72;;;4.50;99.90;;;;;;5034103;28;20044;-85
2022/01/07 10:35:03;;;;;;;5.88;2.13;;;4.60;99.90;;;;;;5033487;28;20048;-90
2022/01/07 10:37:29;;;;;;;7.95;2.25;;;4.70;99.90;;;;;;5033417;28;20049;-87
2022/01/07 10:39:55;;;;;;;5.95;1.75;;;4.80;99.90;;;;;;5017246;28;20060;-84
2022/01/07 10:42:25;;;;;;;4.82;1.90;;;4.70;99.90;;;;;;5051546;28;20535;-88
2022/01/07 10:44:59;;;;;;;10.48;1.60;;;4.70;99.90;;;;;;5051677;28;20153;-88
2022/01/07 10:47:25;;;;;;;4.85;1.20;;;4.60;99.90;;;;;;5051358;28;20562;-88
2022/01/07 10:50:18;;;;;;;4.90;0.95;;;4.60;99.90;;;;;;5051505;28;20131;-83
2022/01/07 10:52:44;;;;;;;6.93;1.17;;;4.50;99.90;;;;;;5051313;28;20041;-86
2022/01/07 10:55:17;;;;;;;2.03;0.95;;;4.50;99.90;;;;;;5034023;28;20107;-88
2022/01/07 10:57:45;;;;;;;10.63;1.73;;;4.40;99.90;;;;;;5051582;28;20045;-91
2022/01/07 11:00:16;;;;;;;4.50;1.60;;;4.40;99.90;;;;;;5051541;28;20120;-90
2022/01/07 11:02:42;;;;;;;4.68;1.52;;;4.50;99.90;;;;;;5052655;28;20396;-84
2022/01/07 11:05:08;;;;;;;9.20;2.10;;;4.50;99.90;;;;;;5036606;28;20056;-91
2022/01/07 11:07:35;;;;;;;9.00;2.30;;;5.40;99.90;;;;;;5071903;28;20048;-92
2022/01/07 11:10:03;;;;;;;7.53;1.80;;;4.50;99.90;;;;;;5071846;28;20044;-91
2022/01/07 11:12:30;;;;;;;7.20;2.20;;;4.50;99.90;;;;;;5071770;28;20044;-89
2022/01/07 11:14:58;;;;;;;8.73;2.63;;;4.50;99.90;;;;;;5071596;28;20036;-87
2022/01/07 11:17:24;;;;;;;11.27;3.22;;;4.50;99.90;;;;;;5071103;28;20044;-87
2022/01/07 11:20:12;;;;;;;6.72;3.33;;;5.30;99.90;;;;;;5052498;28;20491;-84
2022/01/07 11:22:40;;;;;;;18.27;4.43;;;4.70;99.90;;;;;;5071367;28;20048;-88
2022/01/07 11:25:10;;;;;;;14.95;5.22;;;4.80;99.90;;;;;;5071983;28;20044;-90
2022/01/07 11:27:57;;;;;;;14.75;5.97;;;4.80;99.90;;;;;;5056248;28;20563;-92
2022/01/07 11:30:28;;;;;;;14.35;5.85;;;5.90;99.90;;;;;;5044668;28;20040;-95
2022/01/07 11:32:55;;;;;;;15.95;5.55;;;5.70;99.90;;;;;;5076915;28;20056;-90
2022/01/07 11:35:21;;;;;;;13.00;6.13;;;5.30;99.90;;;;;;5074657;28;20087;-89
2022/01/07 11:37:51;;;;;;;17.38;6.28;;;5.30;99.90;;;;;;5074907;28;20045;-94
2022/01/07 11:40:29;;;;;;;18.85;6.97;;;5.50;99.90;;;;;;5075346;28;20052;-88
2022/01/07 11:42:56;;;;;;;17.70;6.45;;;5.60;99.90;;;;;;5040468;28;20091;-85
2022/01/07 11:45:32;;;;;;;13.43;6.30;;;5.80;99.90;;;;;;5074623;28;20487;-90
2022/01/07 11:48:10;;;;;;;18.80;6.65;;;5.70;99.90;;;;;;5029745;28;20499;-89
2022/01/07 11:50:46;;;;;;;13.43;6.32;;;6.60;99.90;;;;;;5054413;28;20094;-89
2022/01/07 11:53:11;;;;;;;14.57;6.60;;;6.70;99.90;;;;;;5054474;28;20475;-91
2022/01/07 11:55:38;;;;;;;20.88;6.15;;;6.10;99.90;;;;;;5036818;28;20106;-90
2022/01/07 11:58:06;;;;;;;14.15;6.72;;;5.80;99.90;;;;;;5036442;28;20059;-92
2022/01/07 12:00:53;;;;;;;18.13;5.93;;;5.70;99.90;;;;;;5037162;28;20131;-87
2022/01/07 12:03:42;;;;;;;16.17;6.93;;;5.60;99.90;;;;;;5036841;28;20071;-91
2022/01/07 12:06:17;;;;;;;18.65;5.95;;;5.60;99.90;;;;;;5040057;28;20041;-86
2022/01/07 12:08:58;;;;;;;;;;;5.60;99.90;;;;;;5065814;28;20049;-91
2022/01/07 12:11:26;;;;;;;17.40;7.25;;;5.50;99.90;;;;;;5056312;28;19924;-93
2022/01/07 12:13:52;;;;;;;23.40;8.15;;;6.00;99.90;;;;;;5074533;28;20044;-90
2022/01/07 12:16:22;;;;;;;13.90;6.30;;;5.40;99.90;;;;;;5071926;28;20044;-86
2022/01/07 12:18:47;;;;;;;18.90;7.60;;;5.40;99.90;;;;;;5056465;28;20056;-88
2022/01/07 12:21:13;;;;;;;14.48;6.47;;;5.40;99.90;;;;;;5052979;28;20063;-89
2022/01/07 12:23:44;;;;;;;11.02;5.75;;;5.80;99.90;;;;;;5071557;28;20045;-92
2022/01/07 12:26:10;;;;;;;12.25;5.18;;;6.00;99.90;;;;;;5072916;28;20066;-87
2022/01/07 12:28:42;;;;;;;16.80;4.90;;;6.00;99.90;;;;;;5030791;28;20515;-85
2022/01/07 12:31:14;;;;;;;10.50;4.55;;;5.60;99.90;;;;;;5053899;28;20124;-85
2022/01/07 12:33:58;;;;;;;12.63;4.50;;;5.60;99.90;;;;;;5053286;28;20044;-90
2022/01/07 12:36:36;;;;;;;12.50;3.90;;;5.70;99.90;;;;;;5053484;28;20049;-92
2022/01/07 12:39:09;;;;;;;7.63;3.45;;;5.70;99.90;;;;;;5053182;28;20044;-86
2022/01/07 12:41:36;;;;;;;6.68;3.67;;;5.60;99.90;;;;;;5035097;28;20055;-85
2022/01/07 12:44:13;;;;;;;9.85;3.85;;;5.70;99.90;;;;;;5053181;28;20103;-86
2022/01/07 12:46:40;;;;;;;10.18;3.72;;;6.10;99.90;;;;;;5035610;28;20121;-87
2022/01/07 12:49:08;;;;;;;13.55;3.95;;;6.40;99.90;;;;;;5035125;28;20048;-83
2022/01/07 12:51:42;;;;;;;13.60;3.58;;;6.60;99.90;;;;;;5053571;28;20394;-88
2022/01/07 12:54:08;;;;;;;7.05;3.10;;;5.90;99.90;;;;;;5053647;28;20084;-92
2022/01/07 12:56:40;;;;;;;9.65;2.53;;;6.50;99.90;;;;;;5035622;28;20045;-91
2022/01/07 12:59:14;;;;;;;13.25;3.72;;;6.20;99.90;;;;;;5053247;28;20514;-91
2022/01/07 13:01:43;;;;;;;17.02;3.70;;;6.00;99.90;;;;;;5035104;28;20060;-87
2022/01/07 13:04:20;;;;;;;11.60;3.30;;;6.50;99.90;;;;;;5034888;28;20041;-90
2022/01/07 13:06:47;;;;;;;15.07;3.75;;;6.10;99.90;;;;;;5052807;28;20049;-87
2022/01/07 13:09:18;;;;;;;10.98;3.10;;;6.10;99.90;;;;;;5053114;28;20048;-85